sensor_id;sensor_type;location;lat;lon;timestamp;temperature;humidity
24374;DHT22;12498;50.880;12.096;2023-06-10T00:00:36;18.10;1.00
24374;DHT22;12498;50.880;12.096;2023-06-10T00:03:02;18.00;1.00
24374;DHT22;12498;50.880;12.096;2023-06-10T00:05:28;17.90;1.00
24374;DHT22;12498;50.880;12.096;2023-06-10T00:07:55;17.90;27.00
24374;DHT22;12498;50.880;12.096;2023-06-10T00:10:21;17.80;99.90
24374;DHT22;12498;50.880;12.096;2023-06-10T00:12:47;17.80;99.90
24374;DHT22;12498;50.880;12.096;2023-06-10T00:15:13;17.80;99.90
24374;DHT22;12498;50.880;12.096;2023-06-10T00:17:38;17.70;99.90
24374;DHT22;12498;50.880;12.096;2023-06-10T00:20:06;17.70;1.00
24374;DHT22;12498;50.880;12.096;2023-06-10T00:22:34;17.70;99.90
24374;DHT22;12498;50.880;12.096;2023-06-10T00:25:00;17.60;99.90
24374;DHT22;12498;50.880;12.096;2023-06-10T00:27:25;17.50;99.90
24374;DHT22;12498;50.880;12.096;2023-06-10T00:29:56;17.50;1.00
24374;DHT22;12498;50.880;12.096;2023-06-10T00:32:22;17.40;1.00
24374;DHT22;12498;50.880;12.096;2023-06-10T00:34:47;17.40;1.00
24374;DHT22;12498;50.880;12.096;2023-06-10T00:37:12;17.30;1.00
24374;DHT22;12498;50.880;12.096;2023-06-10T00:39:39;17.30;99.90
24374;DHT22;12498;50.880;12.096;2023-06-10T00:42:04;17.30;99.90
24374;DHT22;12498;50.880;12.096;2023-06-10T00:44:32;17.30;99.90
24374;DHT22;12498;50.880;12.096;2023-06-10T00:46:57;17.20;1.00
24374;DHT22;12498;50.880;12.096;2023-06-10T00:49:23;17.20;1.00
24374;DHT22;12498;50.880;12.096;2023-06-10T00:51:49;17.20;66.00
24374;DHT22;12498;50.880;12.096;2023-06-10T00:54:16;17.20;63.30
24374;DHT22;12498;50.880;12.096;2023-06-10T00:56:41;17.20;1.00
24374;DHT22;12498;50.880;12.096;2023-06-10T00:59:08;17.20;99.90
24374;DHT22;12498;50.880;12.096;2023-06-10T01:01:34;17.10;99.90
24374;DHT22;12498;50.880;12.096;2023-06-10T01:04:00;17.10;99.90
24374;DHT22;12498;50.880;12.096;2023-06-10T01:11:41;17.10;99.90
24374;DHT22;12498;50.880;12.096;2023-06-10T01:14:08;17.00;11.20
24374;DHT22;12498;50.880;12.096;2023-06-10T01:16:37;17.00;98.20
24374;DHT22;12498;50.880;12.096;2023-06-10T01:19:06;16.90;69.30
24374;DHT22;12498;50.880;12.096;2023-06-10T01:21:31;16.90;1.00
24374;DHT22;12498;50.880;12.096;2023-06-10T01:23:57;16.90;1.00
24374;DHT22;12498;50.880;12.096;2023-06-10T01:26:28;16.90;1.00
24374;DHT22;12498;50.880;12.096;2023-06-10T01:28:57;16.90;1.00
24374;DHT22;12498;50.880;12.096;2023-06-10T01:31:30;16.90;45.50
24374;DHT22;12498;50.880;12.096;2023-06-10T01:33:59;16.90;1.00
24374;DHT22;12498;50.880;12.096;2023-06-10T01:36:25;16.90;1.00
24374;DHT22;12498;50.880;12.096;2023-06-10T01:38:51;16.80;21.80
24374;DHT22;12498;50.880;12.096;2023-06-10T01:41:18;16.80;99.90
24374;DHT22;12498;50.880;12.096;2023-06-10T01:43:44;16.80;1.00
24374;DHT22;12498;50.880;12.096;2023-06-10T01:46:10;16.80;99.90
24374;DHT22;12498;50.880;12.096;2023-06-10T01:48:36;16.80;99.90
24374;DHT22;12498;50.880;12.096;2023-06-10T01:51:02;16.80;99.90
24374;DHT22;12498;50.880;12.096;2023-06-10T01:53:28;16.80;99.90
24374;DHT22;12498;50.880;12.096;2023-06-10T01:55:54;16.80;99.90
24374;DHT22;12498;50.880;12.096;2023-06-10T01:58:19;16.80;20.90
24374;DHT22;12498;50.880;12.096;2023-06-10T02:00:45;16.80;99.90
24374;DHT22;12498;50.880;12.096;2023-06-10T02:03:10;16.70;99.90
24374;DHT22;12498;50.880;12.096;2023-06-10T02:05:36;16.80;99.90
24374;DHT22;12498;50.880;12.096;2023-06-10T02:08:01;16.80;99.90
24374;DHT22;12498;50.880;12.096;2023-06-10T02:10:27;16.70;99.90
24374;DHT22;12498;50.880;12.096;2023-06-10T02:12:53;16.70;99.90
24374;DHT22;12498;50.880;12.096;2023-06-10T02:15:18;16.70;99.90
24374;DHT22;12498;50.880;12.096;2023-06-10T02:17:44;16.70;99.90
24374;DHT22;12498;50.880;12.096;2023-06-10T02:20:10;16.60;99.90
24374;DHT22;12498;50.880;12.096;2023-06-10T02:22:36;16.60;1.00
24374;DHT22;12498;50.880;12.096;2023-06-10T02:25:01;16.60;1.00
24374;DHT22;12498;50.880;12.096;2023-06-10T02:27:27;16.60;1.00
24374;DHT22;12498;50.880;12.096;2023-06-10T02:29:52;16.60;99.90
24374;DHT22;12498;50.880;12.096;2023-06-10T02:32:18;16.40;99.90
24374;DHT22;12498;50.880;12.096;2023-06-10T02:34:43;16.50;99.90
24374;DHT22;12498;50.880;12.096;2023-06-10T02:37:09;16.50;1.00
24374;DHT22;12498;50.880;12.096;2023-06-10T02:39:34;16.40;1.00
24374;DHT22;12498;50.880;12.096;2023-06-10T02:42:00;16.40;99.90
24374;DHT22;12498;50.880;12.096;2023-06-10T02:44:25;16.40;99.90
24374;DHT22;12498;50.880;12.096;2023-06-10T02:46:51;16.40;1.00
24374;DHT22;12498;50.880;12.096;2023-06-10T02:49:17;16.40;1.00
24374;DHT22;12498;50.880;12.096;2023-06-10T02:51:42;16.30;99.90
24374;DHT22;12498;50.880;12.096;2023-06-10T02:54:08;16.30;99.90
24374;DHT22;12498;50.880;12.096;2023-06-10T02:56:33;16.20;99.90
24374;DHT22;12498;50.880;12.096;2023-06-10T02:58:59;16.10;99.90
24374;DHT22;12498;50.880;12.096;2023-06-10T03:01:24;11.90;99.90
24374;DHT22;12498;50.880;12.096;2023-06-10T03:03:50;16.20;99.90
24374;DHT22;12498;50.880;12.096;2023-06-10T03:06:15;16.10;99.90
24374;DHT22;12498;50.880;12.096;2023-06-10T03:08:42;16.00;99.90
24374;DHT22;12498;50.880;12.096;2023-06-10T03:11:07;16.00;99.90
24374;DHT22;12498;50.880;12.096;2023-06-10T03:13:33;16.00;1.00
24374;DHT22;12498;50.880;12.096;2023-06-10T03:15:59;15.90;1.00
24374;DHT22;12498;50.880;12.096;2023-06-10T03:18:25;15.90;1.00
24374;DHT22;12498;50.880;12.096;2023-06-10T03:20:51;15.90;1.00
24374;DHT22;12498;50.880;12.096;2023-06-10T03:23:17;15.80;1.00
24374;DHT22;12498;50.880;12.096;2023-06-10T03:25:44;15.90;1.00
24374;DHT22;12498;50.880;12.096;2023-06-10T03:28:09;15.70;87.70
24374;DHT22;12498;50.880;12.096;2023-06-10T03:30:35;15.70;99.90
24374;DHT22;12498;50.880;12.096;2023-06-10T03:33:01;15.60;99.90
24374;DHT22;12498;50.880;12.096;2023-06-10T03:35:26;15.60;99.90
24374;DHT22;12498;50.880;12.096;2023-06-10T03:37:52;15.60;99.90
24374;DHT22;12498;50.880;12.096;2023-06-10T03:40:17;15.60;99.90
24374;DHT22;12498;50.880;12.096;2023-06-10T03:42:43;15.60;99.90
24374;DHT22;12498;50.880;12.096;2023-06-10T03:45:09;15.60;99.90
24374;DHT22;12498;50.880;12.096;2023-06-10T03:47:35;15.60;99.90
24374;DHT22;12498;50.880;12.096;2023-06-10T03:50:05;15.60;99.90
24374;DHT22;12498;50.880;12.096;2023-06-10T03:52:30;15.60;99.90
24374;DHT22;12498;50.880;12.096;2023-06-10T03:54:56;15.60;99.90
24374;DHT22;12498;50.880;12.096;2023-06-10T03:57:21;15.70;99.90
24374;DHT22;12498;50.880;12.096;2023-06-10T03:59:47;15.70;99.90
24374;DHT22;12498;50.880;12.096;2023-06-10T04:02:12;15.70;99.90
24374;DHT22;12498;50.880;12.096;2023-06-10T04:04:38;15.70;99.90
24374;DHT22;12498;50.880;12.096;2023-06-10T04:07:04;15.80;99.90
24374;DHT22;12498;50.880;12.096;2023-06-10T04:09:30;15.80;99.90
24374;DHT22;12498;50.880;12.096;2023-06-10T04:11:55;15.80;99.90
24374;DHT22;12498;50.880;12.096;2023-06-10T04:14:21;15.80;99.90
24374;DHT22;12498;50.880;12.096;2023-06-10T04:16:46;15.80;99.90
24374;DHT22;12498;50.880;12.096;2023-06-10T04:19:12;15.90;99.90
24374;DHT22;12498;50.880;12.096;2023-06-10T04:21:37;15.90;99.90
24374;DHT22;12498;50.880;12.096;2023-06-10T04:24:03;16.00;99.90
24374;DHT22;12498;50.880;12.096;2023-06-10T04:26:29;16.00;99.90
24374;DHT22;12498;50.880;12.096;2023-06-10T04:28:54;16.00;99.90
24374;DHT22;12498;50.880;12.096;2023-06-10T04:31:20;16.00;99.90
24374;DHT22;12498;50.880;12.096;2023-06-10T04:33:46;16.00;99.90
24374;DHT22;12498;50.880;12.096;2023-06-10T04:36:11;15.90;99.90
24374;DHT22;12498;50.880;12.096;2023-06-10T04:38:37;16.00;99.90
24374;DHT22;12498;50.880;12.096;2023-06-10T04:41:02;15.90;1.00
24374;DHT22;12498;50.880;12.096;2023-06-10T04:43:28;15.90;1.00
24374;DHT22;12498;50.880;12.096;2023-06-10T04:45:55;15.90;1.00
24374;DHT22;12498;50.880;12.096;2023-06-10T04:48:20;16.00;99.90
24374;DHT22;12498;50.880;12.096;2023-06-10T04:50:46;16.10;1.00
24374;DHT22;12498;50.880;12.096;2023-06-10T04:53:12;16.10;1.00
24374;DHT22;12498;50.880;12.096;2023-06-10T04:55:37;15.20;1.00
24374;DHT22;12498;50.880;12.096;2023-06-10T04:58:03;16.10;99.90
24374;DHT22;12498;50.880;12.096;2023-06-10T05:00:28;16.10;99.90
24374;DHT22;12498;50.880;12.096;2023-06-10T05:02:54;16.20;99.90
24374;DHT22;12498;50.880;12.096;2023-06-10T05:05:21;16.20;99.90
24374;DHT22;12498;50.880;12.096;2023-06-10T05:07:46;16.30;99.90
24374;DHT22;12498;50.880;12.096;2023-06-10T05:10:12;16.20;99.90
24374;DHT22;12498;50.880;12.096;2023-06-10T05:12:38;16.10;1.00
24374;DHT22;12498;50.880;12.096;2023-06-10T05:15:04;16.20;1.00
24374;DHT22;12498;50.880;12.096;2023-06-10T05:17:30;16.20;1.00
24374;DHT22;12498;50.880;12.096;2023-06-10T05:19:56;16.20;1.00
24374;DHT22;12498;50.880;12.096;2023-06-10T05:22:25;16.30;1.00
24374;DHT22;12498;50.880;12.096;2023-06-10T05:24:50;16.30;1.00
24374;DHT22;12498;50.880;12.096;2023-06-10T05:27:19;16.30;1.00
24374;DHT22;12498;50.880;12.096;2023-06-10T05:29:44;16.30;1.00
24374;DHT22;12498;50.880;12.096;2023-06-10T05:32:10;16.30;1.00
24374;DHT22;12498;50.880;12.096;2023-06-10T05:34:36;16.30;1.00
24374;DHT22;12498;50.880;12.096;2023-06-10T05:37:01;16.40;1.00
24374;DHT22;12498;50.880;12.096;2023-06-10T05:39:27;16.50;1.00
24374;DHT22;12498;50.880;12.096;2023-06-10T05:41:52;16.40;1.00
24374;DHT22;12498;50.880;12.096;2023-06-10T05:44:18;16.40;1.00
24374;DHT22;12498;50.880;12.096;2023-06-10T05:46:43;16.40;1.00
24374;DHT22;12498;50.880;12.096;2023-06-10T05:49:09;16.50;1.00
24374;DHT22;12498;50.880;12.096;2023-06-10T05:51:35;16.50;1.00
24374;DHT22;12498;50.880;12.096;2023-06-10T05:54:02;16.60;1.00
24374;DHT22;12498;50.880;12.096;2023-06-10T05:56:27;16.70;1.00
24374;DHT22;12498;50.880;12.096;2023-06-10T05:58:53;16.70;1.00
24374;DHT22;12498;50.880;12.096;2023-06-10T06:01:18;16.60;1.00
24374;DHT22;12498;50.880;12.096;2023-06-10T06:03:44;16.60;1.00
24374;DHT22;12498;50.880;12.096;2023-06-10T06:06:09;16.60;1.00
24374;DHT22;12498;50.880;12.096;2023-06-10T06:08:35;16.60;1.00
24374;DHT22;12498;50.880;12.096;2023-06-10T06:11:00;16.70;1.00
24374;DHT22;12498;50.880;12.096;2023-06-10T06:13:26;16.80;1.00
24374;DHT22;12498;50.880;12.096;2023-06-10T06:15:51;16.80;1.00
24374;DHT22;12498;50.880;12.096;2023-06-10T06:18:17;16.70;1.00
24374;DHT22;12498;50.880;12.096;2023-06-10T06:20:43;16.80;1.00
24374;DHT22;12498;50.880;12.096;2023-06-10T06:23:09;16.90;1.00
24374;DHT22;12498;50.880;12.096;2023-06-10T06:25:36;17.10;1.00
24374;DHT22;12498;50.880;12.096;2023-06-10T06:28:02;17.10;1.00
24374;DHT22;12498;50.880;12.096;2023-06-10T06:30:28;17.30;73.50
24374;DHT22;12498;50.880;12.096;2023-06-10T06:32:53;17.50;1.00
24374;DHT22;12498;50.880;12.096;2023-06-10T06:35:19;17.50;1.00
24374;DHT22;12498;50.880;12.096;2023-06-10T06:37:44;17.40;1.00
24374;DHT22;12498;50.880;12.096;2023-06-10T06:40:10;17.40;1.00
24374;DHT22;12498;50.880;12.096;2023-06-10T06:42:36;17.50;1.00
24374;DHT22;12498;50.880;12.096;2023-06-10T06:45:01;17.60;1.00
24374;DHT22;12498;50.880;12.096;2023-06-10T06:47:27;17.60;87.40
24374;DHT22;12498;50.880;12.096;2023-06-10T06:49:53;17.80;1.00
24374;DHT22;12498;50.880;12.096;2023-06-10T06:52:18;17.90;1.00
24374;DHT22;12498;50.880;12.096;2023-06-10T06:54:44;18.10;3.90
24374;DHT22;12498;50.880;12.096;2023-06-10T06:57:10;18.10;1.00
24374;DHT22;12498;50.880;12.096;2023-06-10T06:59:35;18.10;1.00
24374;DHT22;12498;50.880;12.096;2023-06-10T07:02:02;18.10;1.00
24374;DHT22;12498;50.880;12.096;2023-06-10T07:04:27;18.10;1.00
24374;DHT22;12498;50.880;12.096;2023-06-10T07:06:53;18.20;1.00
24374;DHT22;12498;50.880;12.096;2023-06-10T07:09:18;18.30;1.00
24374;DHT22;12498;50.880;12.096;2023-06-10T07:11:44;18.30;99.90
24374;DHT22;12498;50.880;12.096;2023-06-10T07:14:09;18.30;99.90
24374;DHT22;12498;50.880;12.096;2023-06-10T07:16:35;18.30;1.00
24374;DHT22;12498;50.880;12.096;2023-06-10T07:19:00;18.30;99.90
24374;DHT22;12498;50.880;12.096;2023-06-10T07:21:26;18.40;1.00
24374;DHT22;12498;50.880;12.096;2023-06-10T07:23:53;18.40;99.90
24374;DHT22;12498;50.880;12.096;2023-06-10T07:26:19;18.60;1.00
24374;DHT22;12498;50.880;12.096;2023-06-10T07:28:45;18.60;99.90
24374;DHT22;12498;50.880;12.096;2023-06-10T07:31:10;18.70;1.00
24374;DHT22;12498;50.880;12.096;2023-06-10T07:33:37;18.80;99.90
24374;DHT22;12498;50.880;12.096;2023-06-10T07:36:04;18.90;99.90
24374;DHT22;12498;50.880;12.096;2023-06-10T07:38:30;19.00;99.90
24374;DHT22;12498;50.880;12.096;2023-06-10T07:40:55;19.10;2.60
24374;DHT22;12498;50.880;12.096;2023-06-10T07:43:21;19.10;1.00
24374;DHT22;12498;50.880;12.096;2023-06-10T07:45:47;19.10;51.50
24374;DHT22;12498;50.880;12.096;2023-06-10T07:48:12;19.20;1.00
24374;DHT22;12498;50.880;12.096;2023-06-10T07:50:38;19.10;99.90
24374;DHT22;12498;50.880;12.096;2023-06-10T07:53:03;19.10;1.00
24374;DHT22;12498;50.880;12.096;2023-06-10T07:55:29;19.00;1.00
24374;DHT22;12498;50.880;12.096;2023-06-10T07:57:58;19.00;1.00
24374;DHT22;12498;50.880;12.096;2023-06-10T08:00:23;19.10;99.90
24374;DHT22;12498;50.880;12.096;2023-06-10T08:02:49;19.10;1.00
24374;DHT22;12498;50.880;12.096;2023-06-10T08:05:15;19.20;1.00
24374;DHT22;12498;50.880;12.096;2023-06-10T08:07:41;19.30;1.00
24374;DHT22;12498;50.880;12.096;2023-06-10T08:10:07;19.40;99.90
24374;DHT22;12498;50.880;12.096;2023-06-10T08:12:33;19.50;99.90
24374;DHT22;12498;50.880;12.096;2023-06-10T08:14:59;19.60;1.00
24374;DHT22;12498;50.880;12.096;2023-06-10T08:17:25;19.60;99.90
24374;DHT22;12498;50.880;12.096;2023-06-10T08:19:50;19.60;1.00
24374;DHT22;12498;50.880;12.096;2023-06-10T08:22:16;19.70;1.00
24374;DHT22;12498;50.880;12.096;2023-06-10T08:24:41;19.80;99.90
24374;DHT22;12498;50.880;12.096;2023-06-10T08:27:07;19.90;99.90
24374;DHT22;12498;50.880;12.096;2023-06-10T08:29:32;20.10;99.90
24374;DHT22;12498;50.880;12.096;2023-06-10T08:31:58;20.20;99.90
24374;DHT22;12498;50.880;12.096;2023-06-10T08:34:24;20.20;1.00
24374;DHT22;12498;50.880;12.096;2023-06-10T08:36:49;20.30;99.90
24374;DHT22;12498;50.880;12.096;2023-06-10T08:39:21;20.30;99.90
24374;DHT22;12498;50.880;12.096;2023-06-10T08:44:31;20.40;1.00
24374;DHT22;12498;50.880;12.096;2023-06-10T08:46:59;20.50;1.00
24374;DHT22;12498;50.880;12.096;2023-06-10T08:49:25;20.60;99.90
24374;DHT22;12498;50.880;12.096;2023-06-10T08:51:51;20.70;99.90
24374;DHT22;12498;50.880;12.096;2023-06-10T08:54:20;20.90;1.00
24374;DHT22;12498;50.880;12.096;2023-06-10T08:56:48;20.90;99.90
24374;DHT22;12498;50.880;12.096;2023-06-10T08:59:14;21.00;93.00
24374;DHT22;12498;50.880;12.096;2023-06-10T09:01:42;20.90;1.00
24374;DHT22;12498;50.880;12.096;2023-06-10T09:04:07;21.00;42.80
24374;DHT22;12498;50.880;12.096;2023-06-10T09:06:33;21.10;1.00
24374;DHT22;12498;50.880;12.096;2023-06-10T09:08:59;21.10;99.90
24374;DHT22;12498;50.880;12.096;2023-06-10T09:11:25;21.20;99.90
24374;DHT22;12498;50.880;12.096;2023-06-10T09:13:50;21.30;99.90
24374;DHT22;12498;50.880;12.096;2023-06-10T09:16:16;21.50;99.90
24374;DHT22;12498;50.880;12.096;2023-06-10T09:18:42;21.50;1.00
24374;DHT22;12498;50.880;12.096;2023-06-10T09:21:08;21.60;99.90
24374;DHT22;12498;50.880;12.096;2023-06-10T09:23:33;21.80;99.90
24374;DHT22;12498;50.880;12.096;2023-06-10T09:25:59;21.90;77.70
24374;DHT22;12498;50.880;12.096;2023-06-10T09:28:25;22.10;99.90
24374;DHT22;12498;50.880;12.096;2023-06-10T09:31:01;22.20;99.90
24374;DHT22;12498;50.880;12.096;2023-06-10T09:33:27;22.20;59.70
24374;DHT22;12498;50.880;12.096;2023-06-10T09:35:53;22.20;99.90
24374;DHT22;12498;50.880;12.096;2023-06-10T09:38:21;22.30;99.90
24374;DHT22;12498;50.880;12.096;2023-06-10T09:43:16;22.80;1.00
24374;DHT22;12498;50.880;12.096;2023-06-10T09:45:41;23.10;99.90
24374;DHT22;12498;50.880;12.096;2023-06-10T09:48:08;23.20;53.70
24374;DHT22;12498;50.880;12.096;2023-06-10T09:50:34;22.90;99.90
24374;DHT22;12498;50.880;12.096;2023-06-10T09:53:00;23.10;99.90
24374;DHT22;12498;50.880;12.096;2023-06-10T09:55:27;23.40;97.30
24374;DHT22;12498;50.880;12.096;2023-06-10T09:57:53;23.70;1.00
24374;DHT22;12498;50.880;12.096;2023-06-10T10:00:19;23.90;99.90
24374;DHT22;12498;50.880;12.096;2023-06-10T10:02:49;24.20;97.80
24374;DHT22;12498;50.880;12.096;2023-06-10T10:05:15;24.70;1.00
24374;DHT22;12498;50.880;12.096;2023-06-10T10:07:41;25.30;99.90
24374;DHT22;12498;50.880;12.096;2023-06-10T10:10:07;25.50;99.90
24374;DHT22;12498;50.880;12.096;2023-06-10T10:12:34;25.80;99.90
24374;DHT22;12498;50.880;12.096;2023-06-10T10:15:00;26.30;99.90
24374;DHT22;12498;50.880;12.096;2023-06-10T10:17:27;27.20;99.90
24374;DHT22;12498;50.880;12.096;2023-06-10T10:19:57;27.50;99.90
24374;DHT22;12498;50.880;12.096;2023-06-10T10:22:29;27.90;99.90
24374;DHT22;12498;50.880;12.096;2023-06-10T10:24:55;28.10;99.90
24374;DHT22;12498;50.880;12.096;2023-06-10T10:27:28;28.40;99.90
24374;DHT22;12498;50.880;12.096;2023-06-10T10:29:55;28.60;99.90
24374;DHT22;12498;50.880;12.096;2023-06-10T10:32:32;29.50;99.90
24374;DHT22;12498;50.880;12.096;2023-06-10T10:35:06;30.00;46.40
24374;DHT22;12498;50.880;12.096;2023-06-10T10:37:32;30.30;1.00
24374;DHT22;12498;50.880;12.096;2023-06-10T10:39:59;30.10;1.00
24374;DHT22;12498;50.880;12.096;2023-06-10T10:42:25;29.50;1.00
24374;DHT22;12498;50.880;12.096;2023-06-10T10:44:50;29.20;1.00
24374;DHT22;12498;50.880;12.096;2023-06-10T10:47:16;28.90;1.00
24374;DHT22;12498;50.880;12.096;2023-06-10T10:49:44;28.10;1.00
24374;DHT22;12498;50.880;12.096;2023-06-10T10:52:11;27.40;1.00
24374;DHT22;12498;50.880;12.096;2023-06-10T10:54:37;26.80;99.90
24374;DHT22;12498;50.880;12.096;2023-06-10T10:57:18;27.00;99.90
24374;DHT22;12498;50.880;12.096;2023-06-10T10:59:44;27.30;99.90
24374;DHT22;12498;50.880;12.096;2023-06-10T11:02:10;27.30;99.90
24374;DHT22;12498;50.880;12.096;2023-06-10T11:04:36;26.90;99.90
24374;DHT22;12498;50.880;12.096;2023-06-10T11:07:07;26.70;99.90
24374;DHT22;12498;50.880;12.096;2023-06-10T11:09:33;26.70;99.90
24374;DHT22;12498;50.880;12.096;2023-06-10T11:11:59;26.50;99.90
24374;DHT22;12498;50.880;12.096;2023-06-10T11:14:28;26.60;99.90
24374;DHT22;12498;50.880;12.096;2023-06-10T11:16:54;26.70;99.90
24374;DHT22;12498;50.880;12.096;2023-06-10T11:22:17;28.40;99.90
24374;DHT22;12498;50.880;12.096;2023-06-10T11:24:47;29.60;17.10
24374;DHT22;12498;50.880;12.096;2023-06-10T11:27:22;29.50;1.00
24374;DHT22;12498;50.880;12.096;2023-06-10T11:32:21;31.70;1.00
24374;DHT22;12498;50.880;12.096;2023-06-10T11:34:51;32.70;1.00
24374;DHT22;12498;50.880;12.096;2023-06-10T11:37:17;33.50;1.00
24374;DHT22;12498;50.880;12.096;2023-06-10T11:39:43;34.10;1.00
24374;DHT22;12498;50.880;12.096;2023-06-10T11:42:09;34.20;1.00
24374;DHT22;12498;50.880;12.096;2023-06-10T11:44:34;33.10;1.00
24374;DHT22;12498;50.880;12.096;2023-06-10T11:47:03;31.90;1.00
24374;DHT22;12498;50.880;12.096;2023-06-10T11:49:28;32.00;1.00
24374;DHT22;12498;50.880;12.096;2023-06-10T11:51:54;32.30;1.00
24374;DHT22;12498;50.880;12.096;2023-06-10T11:54:20;32.60;1.00
24374;DHT22;12498;50.880;12.096;2023-06-10T11:56:47;33.70;1.00
24374;DHT22;12498;50.880;12.096;2023-06-10T11:59:13;34.30;1.00
24374;DHT22;12498;50.880;12.096;2023-06-10T12:01:43;34.80;1.00
24374;DHT22;12498;50.880;12.096;2023-06-10T12:04:12;35.30;1.00
24374;DHT22;12498;50.880;12.096;2023-06-10T12:06:39;36.00;1.00
24374;DHT22;12498;50.880;12.096;2023-06-10T12:09:05;36.30;1.00
24374;DHT22;12498;50.880;12.096;2023-06-10T12:11:31;36.90;1.00
24374;DHT22;12498;50.880;12.096;2023-06-10T12:13:56;36.90;1.00
24374;DHT22;12498;50.880;12.096;2023-06-10T12:16:22;37.10;1.00
24374;DHT22;12498;50.880;12.096;2023-06-10T12:18:47;36.50;1.00
24374;DHT22;12498;50.880;12.096;2023-06-10T12:21:23;36.00;1.00
24374;DHT22;12498;50.880;12.096;2023-06-10T12:24:08;35.60;1.00
24374;DHT22;12498;50.880;12.096;2023-06-10T12:26:40;35.50;1.00
24374;DHT22;12498;50.880;12.096;2023-06-10T12:34:18;37.60;1.00
24374;DHT22;12498;50.880;12.096;2023-06-10T12:36:48;37.70;1.00
24374;DHT22;12498;50.880;12.096;2023-06-10T12:39:13;38.40;1.00
24374;DHT22;12498;50.880;12.096;2023-06-10T12:41:39;38.60;1.00
24374;DHT22;12498;50.880;12.096;2023-06-10T12:44:05;38.70;1.00
24374;DHT22;12498;50.880;12.096;2023-06-10T12:46:37;38.90;1.00
24374;DHT22;12498;50.880;12.096;2023-06-10T12:49:03;39.30;1.00
24374;DHT22;12498;50.880;12.096;2023-06-10T12:51:28;39.50;1.00
24374;DHT22;12498;50.880;12.096;2023-06-10T12:53:55;39.20;1.00
24374;DHT22;12498;50.880;12.096;2023-06-10T12:56:20;39.10;1.00
24374;DHT22;12498;50.880;12.096;2023-06-10T12:58:47;38.20;1.00
24374;DHT22;12498;50.880;12.096;2023-06-10T13:01:13;38.50;1.00
24374;DHT22;12498;50.880;12.096;2023-06-10T13:03:39;38.30;1.00
24374;DHT22;12498;50.880;12.096;2023-06-10T13:06:05;38.30;1.00
24374;DHT22;12498;50.880;12.096;2023-06-10T13:08:31;38.40;1.00
24374;DHT22;12498;50.880;12.096;2023-06-10T13:10:57;38.70;1.00
24374;DHT22;12498;50.880;12.096;2023-06-10T13:13:23;38.70;1.00
24374;DHT22;12498;50.880;12.096;2023-06-10T13:15:49;38.90;1.00
24374;DHT22;12498;50.880;12.096;2023-06-10T13:18:15;38.90;1.00
24374;DHT22;12498;50.880;12.096;2023-06-10T13:20:43;38.80;1.00
24374;DHT22;12498;50.880;12.096;2023-06-10T13:23:08;38.40;1.00
24374;DHT22;12498;50.880;12.096;2023-06-10T13:25:34;38.10;1.00
24374;DHT22;12498;50.880;12.096;2023-06-10T13:27:59;37.80;1.00
24374;DHT22;12498;50.880;12.096;2023-06-10T13:30:25;36.80;1.00
24374;DHT22;12498;50.880;12.096;2023-06-10T13:32:51;36.20;1.00
24374;DHT22;12498;50.880;12.096;2023-06-10T13:35:17;35.80;1.00
24374;DHT22;12498;50.880;12.096;2023-06-10T13:37:42;35.90;1.00
24374;DHT22;12498;50.880;12.096;2023-06-10T13:40:08;36.10;1.00
24374;DHT22;12498;50.880;12.096;2023-06-10T13:42:35;35.50;1.00
24374;DHT22;12498;50.880;12.096;2023-06-10T13:45:01;35.00;1.00
24374;DHT22;12498;50.880;12.096;2023-06-10T13:47:27;35.00;1.00
24374;DHT22;12498;50.880;12.096;2023-06-10T13:49:52;35.20;1.00
24374;DHT22;12498;50.880;12.096;2023-06-10T13:52:18;35.30;1.00
24374;DHT22;12498;50.880;12.096;2023-06-10T13:54:44;35.00;1.00
24374;DHT22;12498;50.880;12.096;2023-06-10T13:57:10;34.90;1.00
24374;DHT22;12498;50.880;12.096;2023-06-10T13:59:35;34.80;1.00
24374;DHT22;12498;50.880;12.096;2023-06-10T14:02:01;34.10;1.00
24374;DHT22;12498;50.880;12.096;2023-06-10T14:04:27;33.60;1.00
24374;DHT22;12498;50.880;12.096;2023-06-10T14:06:52;32.90;1.00
24374;DHT22;12498;50.880;12.096;2023-06-10T14:09:18;32.60;1.00
24374;DHT22;12498;50.880;12.096;2023-06-10T14:11:44;32.70;1.00
24374;DHT22;12498;50.880;12.096;2023-06-10T14:14:09;33.00;1.00
24374;DHT22;12498;50.880;12.096;2023-06-10T14:16:35;32.30;1.00
24374;DHT22;12498;50.880;12.096;2023-06-10T14:19:01;32.10;1.00
24374;DHT22;12498;50.880;12.096;2023-06-10T14:21:26;31.80;1.00
24374;DHT22;12498;50.880;12.096;2023-06-10T14:23:52;31.60;1.00
24374;DHT22;12498;50.880;12.096;2023-06-10T14:26:18;31.00;1.00
24374;DHT22;12498;50.880;12.096;2023-06-10T14:28:44;30.90;1.00
24374;DHT22;12498;50.880;12.096;2023-06-10T14:31:09;30.90;1.00
24374;DHT22;12498;50.880;12.096;2023-06-10T14:33:36;30.50;1.00
24374;DHT22;12498;50.880;12.096;2023-06-10T14:36:01;30.10;1.00
24374;DHT22;12498;50.880;12.096;2023-06-10T14:38:27;30.00;1.00
24374;DHT22;12498;50.880;12.096;2023-06-10T14:40:53;29.70;1.00
24374;DHT22;12498;50.880;12.096;2023-06-10T14:43:18;29.60;1.00
24374;DHT22;12498;50.880;12.096;2023-06-10T14:45:44;29.60;1.00
24374;DHT22;12498;50.880;12.096;2023-06-10T14:48:10;29.60;1.00
24374;DHT22;12498;50.880;12.096;2023-06-10T14:50:35;29.40;1.00
24374;DHT22;12498;50.880;12.096;2023-06-10T14:53:01;29.20;1.00
24374;DHT22;12498;50.880;12.096;2023-06-10T14:55:27;29.30;1.00
24374;DHT22;12498;50.880;12.096;2023-06-10T14:57:52;29.60;1.00
24374;DHT22;12498;50.880;12.096;2023-06-10T15:00:18;29.90;1.00
24374;DHT22;12498;50.880;12.096;2023-06-10T15:02:48;29.90;1.00
24374;DHT22;12498;50.880;12.096;2023-06-10T15:05:14;29.80;1.00
24374;DHT22;12498;50.880;12.096;2023-06-10T15:07:42;29.70;1.00
24374;DHT22;12498;50.880;12.096;2023-06-10T15:10:08;29.60;1.00
24374;DHT22;12498;50.880;12.096;2023-06-10T15:12:34;29.60;1.00
24374;DHT22;12498;50.880;12.096;2023-06-10T15:14:59;29.80;1.00
24374;DHT22;12498;50.880;12.096;2023-06-10T15:17:25;29.90;1.00
24374;DHT22;12498;50.880;12.096;2023-06-10T15:19:50;30.10;1.00
24374;DHT22;12498;50.880;12.096;2023-06-10T15:22:18;30.00;1.00
24374;DHT22;12498;50.880;12.096;2023-06-10T15:24:44;30.10;1.00
24374;DHT22;12498;50.880;12.096;2023-06-10T15:27:09;30.30;1.00
24374;DHT22;12498;50.880;12.096;2023-06-10T15:29:35;30.50;1.00
24374;DHT22;12498;50.880;12.096;2023-06-10T15:32:01;30.90;1.00
24374;DHT22;12498;50.880;12.096;2023-06-10T15:34:26;31.20;1.00
24374;DHT22;12498;50.880;12.096;2023-06-10T15:36:52;31.50;1.00
24374;DHT22;12498;50.880;12.096;2023-06-10T15:39:17;31.30;1.00